sensor_id;sensor_type;location;lat;lon;timestamp;pressure;altitude;pressure_sealevel;temperature;humidity
50852;BME280;43953;45.508;-122.806;2024-01-07T00:00:04;100405.56;;;20.87;36.59
50852;BME280;43953;45.508;-122.806;2024-01-07T00:00:36;100403.94;;;20.86;36.79
50852;BME280;43953;45.508;-122.806;2024-01-07T00:01:09;100410.53;;;20.85;36.75
50852;BME280;43953;45.508;-122.806;2024-01-07T00:01:50;100409.19;;;20.83;36.80
50852;BME280;43953;45.508;-122.806;2024-01-07T00:02:22;100412.72;;;20.83;36.71
50852;BME280;43953;45.508;-122.806;2024-01-07T00:02:53;100410.25;;;20.82;36.82
50852;BME280;43953;45.508;-122.806;2024-01-07T00:03:25;100409.44;;;20.81;36.87
50852;BME280;43953;45.508;-122.806;2024-01-07T00:03:57;100410.56;;;20.80;36.73
50852;BME280;43953;45.508;-122.806;2024-01-07T00:04:28;100411.66;;;20.79;36.66
50852;BME280;43953;45.508;-122.806;2024-01-07T00:05:00;100410.03;;;20.78;36.89
50852;BME280;43953;45.508;-122.806;2024-01-07T00:05:33;100412.22;;;20.76;36.74
50852;BME280;43953;45.508;-122.806;2024-01-07T00:06:07;100413.31;;;20.75;36.75
50852;BME280;43953;45.508;-122.806;2024-01-07T00:06:38;100419.09;;;20.74;36.88
50852;BME280;43953;45.508;-122.806;2024-01-07T00:07:10;100416.63;;;20.72;36.85
50852;BME280;43953;45.508;-122.806;2024-01-07T00:07:42;100415.81;;;20.72;36.83
50852;BME280;43953;45.508;-122.806;2024-01-07T00:08:13;100410.63;;;20.70;36.96
50852;BME280;43953;45.508;-122.806;2024-01-07T00:08:45;100416.09;;;20.70;36.88
50852;BME280;43953;45.508;-122.806;2024-01-07T00:09:18;100419.94;;;20.69;36.84
50852;BME280;43953;45.508;-122.806;2024-01-07T00:09:50;100412.84;;;20.68;36.93
50852;BME280;43953;45.508;-122.806;2024-01-07T00:10:22;100417.75;;;20.66;36.96
50852;BME280;43953;45.508;-122.806;2024-01-07T00:10:53;100425.97;;;20.66;37.03
50852;BME280;43953;45.508;-122.806;2024-01-07T00:11:25;100419.16;;;20.63;37.11
50852;BME280;43953;45.508;-122.806;2024-01-07T00:11:57;100422.69;;;20.64;37.02
50852;BME280;43953;45.508;-122.806;2024-01-07T00:12:28;100426.53;;;20.63;37.08
50852;BME280;43953;45.508;-122.806;2024-01-07T00:13:00;100427.91;;;20.60;36.98
50852;BME280;43953;45.508;-122.806;2024-01-07T00:13:32;100427.38;;;20.58;37.06
50852;BME280;43953;45.508;-122.806;2024-01-07T00:14:04;100428.72;;;20.61;37.06
50852;BME280;43953;45.508;-122.806;2024-01-07T00:14:35;100431.19;;;20.62;37.27
50852;BME280;43953;45.508;-122.806;2024-01-07T00:15:07;100429.25;;;20.68;37.14
50852;BME280;43953;45.508;-122.806;2024-01-07T00:15:39;100433.03;;;20.72;36.93
50852;BME280;43953;45.508;-122.806;2024-01-07T00:16:11;100440.13;;;20.78;37.13
50852;BME280;43953;45.508;-122.806;2024-01-07T00:16:43;100441.72;;;20.84;36.98
50852;BME280;43953;45.508;-122.806;2024-01-07T00:17:14;100447.16;;;20.89;36.93
50852;BME280;43953;45.508;-122.806;2024-01-07T00:17:46;100435.38;;;20.94;36.89
50852;BME280;43953;45.508;-122.806;2024-01-07T00:18:18;100438.34;;;20.98;36.70
50852;BME280;43953;45.508;-122.806;2024-01-07T00:18:49;100433.94;;;21.02;36.85
50852;BME280;43953;45.508;-122.806;2024-01-07T00:19:21;100443.50;;;21.04;36.66
50852;BME280;43953;45.508;-122.806;2024-01-07T00:19:53;100436.91;;;21.05;36.48
50852;BME280;43953;45.508;-122.806;2024-01-07T00:20:25;100445.94;;;21.06;36.95
50852;BME280;43953;45.508;-122.806;2024-01-07T00:20:56;100445.94;;;21.06;36.65
50852;BME280;43953;45.508;-122.806;2024-01-07T00:21:28;100442.09;;;21.07;36.49
50852;BME280;43953;45.508;-122.806;2024-01-07T00:22:00;100442.94;;;21.07;36.65
50852;BME280;43953;45.508;-122.806;2024-01-07T00:22:31;100448.41;;;21.07;36.52
50852;BME280;43953;45.508;-122.806;2024-01-07T00:23:03;100450.59;;;21.05;36.56
50852;BME280;43953;45.508;-122.806;2024-01-07T00:23:35;100448.66;;;21.06;36.48
50852;BME280;43953;45.508;-122.806;2024-01-07T00:24:07;100453.34;;;21.05;36.63
50852;BME280;43953;45.508;-122.806;2024-01-07T00:24:38;100451.72;;;21.04;36.45
50852;BME280;43953;45.508;-122.806;2024-01-07T00:25:10;100456.06;;;21.05;36.63
50852;BME280;43953;45.508;-122.806;2024-01-07T00:25:42;100456.38;;;21.04;36.45
50852;BME280;43953;45.508;-122.806;2024-01-07T00:26:13;100451.97;;;21.03;36.51
50852;BME280;43953;45.508;-122.806;2024-01-07T00:26:45;100451.16;;;21.02;36.61
50852;BME280;43953;45.508;-122.806;2024-01-07T00:27:17;100455.81;;;21.02;36.56
50852;BME280;43953;45.508;-122.806;2024-01-07T00:27:49;100453.09;;;21.02;36.53
50852;BME280;43953;45.508;-122.806;2024-01-07T00:28:22;100459.69;;;21.01;36.62
50852;BME280;43953;45.508;-122.806;2024-01-07T00:28:54;100456.94;;;21.01;36.61
50852;BME280;43953;45.508;-122.806;2024-01-07T00:29:25;100458.03;;;21.00;36.49
50852;BME280;43953;45.508;-122.806;2024-01-07T00:29:57;100461.88;;;20.99;36.47
50852;BME280;43953;45.508;-122.806;2024-01-07T00:30:29;100461.06;;;20.98;36.46
50852;BME280;43953;45.508;-122.806;2024-01-07T00:31:00;100462.44;;;20.96;36.49
50852;BME280;43953;45.508;-122.806;2024-01-07T00:31:32;100460.81;;;20.95;36.51
50852;BME280;43953;45.508;-122.806;2024-01-07T00:32:04;100448.22;;;20.94;36.78
50852;BME280;43953;45.508;-122.806;2024-01-07T00:32:36;100458.34;;;20.93;36.62
50852;BME280;43953;45.508;-122.806;2024-01-07T00:33:08;100458.66;;;20.92;36.53
50852;BME280;43953;45.508;-122.806;2024-01-07T00:33:39;100462.47;;;20.90;36.75
50852;BME280;43953;45.508;-122.806;2024-01-07T00:34:11;100466.31;;;20.89;36.54
50852;BME280;43953;45.508;-122.806;2024-01-07T00:34:43;100463.03;;;20.87;36.58
50852;BME280;43953;45.508;-122.806;2024-01-07T00:35:14;100464.16;;;20.86;36.74
50852;BME280;43953;45.508;-122.806;2024-01-07T00:35:46;100462.78;;;20.84;36.73
50852;BME280;43953;45.508;-122.806;2024-01-07T00:36:18;100470.19;;;20.83;36.58
50852;BME280;43953;45.508;-122.806;2024-01-07T00:36:50;100471.31;;;20.82;36.68
50852;BME280;43953;45.508;-122.806;2024-01-07T00:37:22;100475.13;;;20.81;36.49
50852;BME280;43953;45.508;-122.806;2024-01-07T00:37:54;100470.75;;;20.80;36.85
50852;BME280;43953;45.508;-122.806;2024-01-07T00:38:28;100467.47;;;20.78;36.88
50852;BME280;43953;45.508;-122.806;2024-01-07T00:38:59;100465.84;;;20.77;36.80
50852;BME280;43953;45.508;-122.806;2024-01-07T00:39:31;100471.59;;;20.76;36.85
50852;BME280;43953;45.508;-122.806;2024-01-07T00:40:03;100474.31;;;20.76;36.73
50852;BME280;43953;45.508;-122.806;2024-01-07T00:40:35;100471.88;;;20.74;36.68
50852;BME280;43953;45.508;-122.806;2024-01-07T00:41:07;100473.81;;;20.74;36.62
50852;BME280;43953;45.508;-122.806;2024-01-07T00:41:39;100472.97;;;20.73;36.91
50852;BME280;43953;45.508;-122.806;2024-01-07T00:42:11;100465.06;;;20.72;36.83
50852;BME280;43953;45.508;-122.806;2024-01-07T00:42:42;100465.31;;;20.70;36.93
50852;BME280;43953;45.508;-122.806;2024-01-07T00:43:14;100469.19;;;20.69;36.78
50852;BME280;43953;45.508;-122.806;2024-01-07T00:43:46;100469.19;;;20.69;36.97
50852;BME280;43953;45.508;-122.806;2024-01-07T00:44:17;100463.16;;;20.67;36.94
50852;BME280;43953;45.508;-122.806;2024-01-07T00:44:49;100472.22;;;20.67;36.96
50852;BME280;43953;45.508;-122.806;2024-01-07T00:45:21;100472.47;;;20.66;36.96
50852;BME280;43953;45.508;-122.806;2024-01-07T00:45:53;100471.94;;;20.64;37.04
50852;BME280;43953;45.508;-122.806;2024-01-07T00:46:24;100471.13;;;20.63;37.06
50852;BME280;43953;45.508;-122.806;2024-01-07T00:46:56;100472.47;;;20.66;36.92
50852;BME280;43953;45.508;-122.806;2024-01-07T00:47:28;100468.38;;;20.68;36.97
50852;BME280;43953;45.508;-122.806;2024-01-07T00:48:00;100466.41;;;20.74;36.91
50852;BME280;43953;45.508;-122.806;2024-01-07T00:48:31;100462.00;;;20.78;36.91
50852;BME280;43953;45.508;-122.806;2024-01-07T00:49:03;100466.66;;;20.83;36.92
50852;BME280;43953;45.508;-122.806;2024-01-07T00:49:35;100463.03;;;20.87;36.89
50852;BME280;43953;45.508;-122.806;2024-01-07T00:50:07;100466.56;;;20.93;36.82
50852;BME280;43953;45.508;-122.806;2024-01-07T00:50:38;100464.38;;;20.95;36.70
50852;BME280;43953;45.508;-122.806;2024-01-07T00:51:10;100462.97;;;20.98;36.69
50852;BME280;43953;45.508;-122.806;2024-01-07T00:51:42;100472.56;;;21.00;36.67
50852;BME280;43953;45.508;-122.806;2024-01-07T00:52:14;100462.41;;;21.01;36.71
50852;BME280;43953;45.508;-122.806;2024-01-07T00:52:45;100464.03;;;21.02;36.74
50852;BME280;43953;45.508;-122.806;2024-01-07T00:53:17;100469.25;;;21.03;36.69
50852;BME280;43953;45.508;-122.806;2024-01-07T00:53:49;100468.41;;;21.03;36.62
50852;BME280;43953;45.508;-122.806;2024-01-07T00:54:21;100469.25;;;21.03;36.55
50852;BME280;43953;45.508;-122.806;2024-01-07T00:54:52;100461.84;;;21.04;36.64
50852;BME280;43953;45.508;-122.806;2024-01-07T00:55:24;100463.78;;;21.03;36.44
50852;BME280;43953;45.508;-122.806;2024-01-07T00:55:56;100458.28;;;21.03;36.57
50852;BME280;43953;45.508;-122.806;2024-01-07T00:56:28;100457.44;;;21.03;36.52
50852;BME280;43953;45.508;-122.806;2024-01-07T00:57:01;100457.44;;;21.03;36.43
50852;BME280;43953;45.508;-122.806;2024-01-07T00:57:33;100453.09;;;21.02;36.44
50852;BME280;43953;45.508;-122.806;2024-01-07T00:58:05;100452.28;;;21.01;36.37
50852;BME280;43953;45.508;-122.806;2024-01-07T00:58:37;100450.66;;;21.00;36.58
50852;BME280;43953;45.508;-122.806;2024-01-07T00:59:08;100449.81;;;21.00;36.41
50852;BME280;43953;45.508;-122.806;2024-01-07T00:59:40;100453.66;;;20.99;36.37
50852;BME280;43953;45.508;-122.806;2024-01-07T01:00:12;100460.25;;;20.98;36.50
50852;BME280;43953;45.508;-122.806;2024-01-07T01:00:44;100455.84;;;20.97;36.60
50852;BME280;43953;45.508;-122.806;2024-01-07T01:01:16;100455.84;;;20.97;36.87
50852;BME280;43953;45.508;-122.806;2024-01-07T01:01:47;100460.81;;;20.95;36.44
50852;BME280;43953;45.508;-122.806;2024-01-07T01:02:19;100464.63;;;20.94;36.63
50852;BME280;43953;45.508;-122.806;2024-01-07T01:02:51;100457.53;;;20.93;36.44
50852;BME280;43953;45.508;-122.806;2024-01-07T01:03:23;100457.53;;;20.93;36.65
50852;BME280;43953;45.508;-122.806;2024-01-07T01:03:54;100450.44;;;20.92;36.58
50852;BME280;43953;45.508;-122.806;2024-01-07T01:04:26;100449.91;;;20.89;36.46
50852;BME280;43953;45.508;-122.806;2024-01-07T01:04:58;100449.34;;;20.87;36.68
50852;BME280;43953;45.508;-122.806;2024-01-07T01:05:29;100455.13;;;20.86;36.63
50852;BME280;43953;45.508;-122.806;2024-01-07T01:06:01;100455.13;;;20.86;36.71
50852;BME280;43953;45.508;-122.806;2024-01-07T01:06:33;100452.66;;;20.84;36.49
50852;BME280;43953;45.508;-122.806;2024-01-07T01:07:05;100454.59;;;20.84;36.73
50852;BME280;43953;45.508;-122.806;2024-01-07T01:07:38;100456.50;;;20.83;36.71
50852;BME280;43953;45.508;-122.806;2024-01-07T01:08:10;100458.44;;;20.83;36.76
50852;BME280;43953;45.508;-122.806;2024-01-07T01:08:42;100451.31;;;20.82;36.82
50852;BME280;43953;45.508;-122.806;2024-01-07T01:09:13;100452.41;;;20.81;36.61
50852;BME280;43953;45.508;-122.806;2024-01-07T01:09:45;100454.34;;;20.80;36.66
50852;BME280;43953;45.508;-122.806;2024-01-07T01:10:17;100449.94;;;20.79;36.70
50852;BME280;43953;45.508;-122.806;2024-01-07T01:10:50;100449.44;;;20.77;36.71
50852;BME280;43953;45.508;-122.806;2024-01-07T01:11:21;100456.00;;;20.76;36.88
50852;BME280;43953;45.508;-122.806;2024-01-07T01:11:53;100446.97;;;20.76;36.68
50852;BME280;43953;45.508;-122.806;2024-01-07T01:12:25;100455.47;;;20.74;36.80
50852;BME280;43953;45.508;-122.806;2024-01-07T01:12:56;100459.28;;;20.73;36.88
50852;BME280;43953;45.508;-122.806;2024-01-07T01:13:28;100456.84;;;20.72;37.00
50852;BME280;43953;45.508;-122.806;2024-01-07T01:14:00;100459.59;;;20.72;36.78
50852;BME280;43953;45.508;-122.806;2024-01-07T01:14:31;100457.13;;;20.70;36.96
50852;BME280;43953;45.508;-122.806;2024-01-07T01:15:03;100460.97;;;20.69;36.89
50852;BME280;43953;45.508;-122.806;2024-01-07T01:15:35;100455.78;;;20.67;36.84
50852;BME280;43953;45.508;-122.806;2024-01-07T01:16:07;100461.28;;;20.67;36.96
50852;BME280;43953;45.508;-122.806;2024-01-07T01:16:39;100467.56;;;20.68;36.97
50852;BME280;43953;45.508;-122.806;2024-01-07T01:17:10;100458.00;;;20.65;36.95
50852;BME280;43953;45.508;-122.806;2024-01-07T01:17:42;100450.06;;;20.64;37.09
50852;BME280;43953;45.508;-122.806;2024-01-07T01:18:14;100457.16;;;20.65;37.10
50852;BME280;43953;45.508;-122.806;2024-01-07T01:18:46;100458.78;;;20.66;37.02
50852;BME280;43953;45.508;-122.806;2024-01-07T01:19:18;100458.22;;;20.69;37.09
50852;BME280;43953;45.508;-122.806;2024-01-07T01:19:50;100459.28;;;20.73;37.08
50852;BME280;43953;45.508;-122.806;2024-01-07T01:20:21;100454.91;;;20.77;36.90
50852;BME280;43953;45.508;-122.806;2024-01-07T01:20:53;100456.50;;;20.83;36.87
50852;BME280;43953;45.508;-122.806;2024-01-07T01:21:25;100459.72;;;20.90;36.84
50852;BME280;43953;45.508;-122.806;2024-01-07T01:21:56;100460.00;;;20.94;36.75
50852;BME280;43953;45.508;-122.806;2024-01-07T01:22:28;100458.59;;;20.97;36.65
50852;BME280;43953;45.508;-122.806;2024-01-07T01:23:00;100458.31;;;20.98;36.67
50852;BME280;43953;45.508;-122.806;2024-01-07T01:23:32;100458.03;;;21.00;36.54
50852;BME280;43953;45.508;-122.806;2024-01-07T01:24:03;100451.47;;;21.01;36.70
50852;BME280;43953;45.508;-122.806;2024-01-07T01:24:35;100458.56;;;21.02;36.75
50852;BME280;43953;45.508;-122.806;2024-01-07T01:25:07;100458.56;;;21.02;36.71
50852;BME280;43953;45.508;-122.806;2024-01-07T01:25:39;100462.13;;;21.02;36.54
50852;BME280;43953;45.508;-122.806;2024-01-07T01:26:11;100457.44;;;21.03;36.58
50852;BME280;43953;45.508;-122.806;2024-01-07T01:26:42;100449.25;;;21.03;36.47
50852;BME280;43953;45.508;-122.806;2024-01-07T01:27:14;100454.72;;;21.03;36.61
50852;BME280;43953;45.508;-122.806;2024-01-07T01:27:46;100453.91;;;21.02;36.47
50852;BME280;43953;45.508;-122.806;2024-01-07T01:28:18;100455.00;;;21.01;36.50
50852;BME280;43953;45.508;-122.806;2024-01-07T01:28:50;100466.78;;;21.02;36.44
50852;BME280;43953;45.508;-122.806;2024-01-07T01:29:21;100467.88;;;21.01;36.52
50852;BME280;43953;45.508;-122.806;2024-01-07T01:29:53;100469.81;;;21.00;36.59
50852;BME280;43953;45.508;-122.806;2024-01-07T01:30:25;100473.63;;;20.99;36.37
50852;BME280;43953;45.508;-122.806;2024-01-07T01:30:58;100471.19;;;20.98;36.53
50852;BME280;43953;45.508;-122.806;2024-01-07T01:31:30;100471.19;;;20.98;36.49
50852;BME280;43953;45.508;-122.806;2024-01-07T01:32:02;100471.19;;;20.98;36.53
50852;BME280;43953;45.508;-122.806;2024-01-07T01:32:33;100472.28;;;20.97;36.46
50852;BME280;43953;45.508;-122.806;2024-01-07T01:33:05;100471.75;;;20.95;36.59
50852;BME280;43953;45.508;-122.806;2024-01-07T01:33:37;100475.59;;;20.94;36.51
50852;BME280;43953;45.508;-122.806;2024-01-07T01:34:09;100476.69;;;20.93;36.49
50852;BME280;43953;45.508;-122.806;2024-01-07T01:34:40;100475.06;;;20.92;36.64
50852;BME280;43953;45.508;-122.806;2024-01-07T01:35:13;100480.00;;;20.89;36.75
50852;BME280;43953;45.508;-122.806;2024-01-07T01:35:45;100474.53;;;20.89;36.37
50852;BME280;43953;45.508;-122.806;2024-01-07T01:36:17;100476.72;;;20.87;36.52
50852;BME280;43953;45.508;-122.806;2024-01-07T01:36:49;100482.19;;;20.87;36.65
50852;BME280;43953;45.508;-122.806;2024-01-07T01:37:21;100477.84;;;20.86;36.73
50852;BME280;43953;45.508;-122.806;2024-01-07T01:37:53;100477.28;;;20.84;36.55
50852;BME280;43953;45.508;-122.806;2024-01-07T01:38:25;100474.84;;;20.83;36.56
50852;BME280;43953;45.508;-122.806;2024-01-07T01:38:57;100483.31;;;20.81;36.56
50852;BME280;43953;45.508;-122.806;2024-01-07T01:39:29;100480.88;;;20.80;36.47
50852;BME280;43953;45.508;-122.806;2024-01-07T01:40:01;100485.53;;;20.79;36.63
50852;BME280;43953;45.508;-122.806;2024-01-07T01:40:32;100489.38;;;20.78;36.75
50852;BME280;43953;45.508;-122.806;2024-01-07T01:41:05;100485.00;;;20.77;36.63
50852;BME280;43953;45.508;-122.806;2024-01-07T01:41:37;100486.09;;;20.76;36.67
50852;BME280;43953;45.508;-122.806;2024-01-07T01:42:09;100488.31;;;20.74;36.81
50852;BME280;43953;45.508;-122.806;2024-01-07T01:42:43;100479.28;;;20.74;36.73
50852;BME280;43953;45.508;-122.806;2024-01-07T01:43:23;100482.28;;;20.72;36.72
50852;BME280;43953;45.508;-122.806;2024-01-07T01:43:59;100481.75;;;20.70;36.77
50852;BME280;43953;45.508;-122.806;2024-01-07T01:44:30;100492.69;;;20.70;36.74
50852;BME280;43953;45.508;-122.806;2024-01-07T01:45:03;100484.78;;;20.68;36.83
50852;BME280;43953;45.508;-122.806;2024-01-07T01:45:35;100482.31;;;20.67;36.87
50852;BME280;43953;45.508;-122.806;2024-01-07T01:46:06;100489.69;;;20.66;36.78
50852;BME280;43953;45.508;-122.806;2024-01-07T01:46:38;100487.78;;;20.67;36.83
50852;BME280;43953;45.508;-122.806;2024-01-07T01:47:10;100490.81;;;20.65;36.81
50852;BME280;43953;45.508;-122.806;2024-01-07T01:47:43;100490.28;;;20.63;36.81
50852;BME280;43953;45.508;-122.806;2024-01-07T01:48:15;100501.50;;;20.62;36.85
50852;BME280;43953;45.508;-122.806;2024-01-07T01:48:47;100493.31;;;20.62;37.03
50852;BME280;43953;45.508;-122.806;2024-01-07T01:49:19;100503.13;;;20.63;36.88
50852;BME280;43953;45.508;-122.806;2024-01-07T01:49:50;100500.66;;;20.66;36.90
50852;BME280;43953;45.508;-122.806;2024-01-07T01:50:22;100506.09;;;20.72;37.01
50852;BME280;43953;45.508;-122.806;2024-01-07T01:50:55;100509.91;;;20.76;36.95
50852;BME280;43953;45.508;-122.806;2024-01-07T01:51:28;100506.03;;;20.82;36.66
50852;BME280;43953;45.508;-122.806;2024-01-07T01:52:00;100505.75;;;20.88;36.77
50852;BME280;43953;45.508;-122.806;2024-01-07T01:52:32;100508.44;;;20.94;36.77
50852;BME280;43953;45.508;-122.806;2024-01-07T01:53:06;100508.69;;;20.97;36.55
50852;BME280;43953;45.508;-122.806;2024-01-07T01:53:37;100504.56;;;21.00;36.52
50852;BME280;43953;45.508;-122.806;2024-01-07T01:54:10;100507.84;;;21.02;36.50
50852;BME280;43953;45.508;-122.806;2024-01-07T01:54:42;100517.66;;;21.03;36.59
50852;BME280;43953;45.508;-122.806;2024-01-07T01:55:14;100508.38;;;21.04;36.64
50852;BME280;43953;45.508;-122.806;2024-01-07T01:55:46;100508.38;;;21.04;36.71
50852;BME280;43953;45.508;-122.806;2024-01-07T01:56:20;100510.81;;;21.05;36.49
50852;BME280;43953;45.508;-122.806;2024-01-07T01:56:52;100511.94;;;21.04;36.35
50852;BME280;43953;45.508;-122.806;2024-01-07T01:57:32;100520.94;;;21.05;36.44
50852;BME280;43953;45.508;-122.806;2024-01-07T01:58:04;100508.38;;;21.04;36.31
50852;BME280;43953;45.508;-122.806;2024-01-07T01:58:37;100513.84;;;21.04;36.29
50852;BME280;43953;45.508;-122.806;2024-01-07T01:59:09;100513.84;;;21.04;36.42
50852;BME280;43953;45.508;-122.806;2024-01-07T01:59:42;100519.31;;;21.04;36.28
50852;BME280;43953;45.508;-122.806;2024-01-07T02:00:14;100508.66;;;21.02;36.40
50852;BME280;43953;45.508;-122.806;2024-01-07T02:00:46;100509.75;;;21.01;36.31
50852;BME280;43953;45.508;-122.806;2024-01-07T02:01:18;100509.75;;;21.01;36.37
50852;BME280;43953;45.508;-122.806;2024-01-07T02:01:49;100507.28;;;21.00;36.30
50852;BME280;43953;45.508;-122.806;2024-01-07T02:02:21;100505.66;;;20.99;36.33
50852;BME280;43953;45.508;-122.806;2024-01-07T02:02:53;100509.50;;;20.98;36.38
50852;BME280;43953;45.508;-122.806;2024-01-07T02:03:25;100505.13;;;20.97;36.47
50852;BME280;43953;45.508;-122.806;2024-01-07T02:03:57;100514.44;;;20.96;36.53
50852;BME280;43953;45.508;-122.806;2024-01-07T02:04:29;100507.34;;;20.95;36.38
50852;BME280;43953;45.508;-122.806;2024-01-07T02:05:01;100508.44;;;20.94;36.47
50852;BME280;43953;45.508;-122.806;2024-01-07T02:05:33;100511.47;;;20.92;36.43
50852;BME280;43953;45.508;-122.806;2024-01-07T02:06:05;100512.28;;;20.93;36.58
50852;BME280;43953;45.508;-122.806;2024-01-07T02:06:37;100518.84;;;20.92;36.58
50852;BME280;43953;45.508;-122.806;2024-01-07T02:07:09;100513.66;;;20.90;36.53
50852;BME280;43953;45.508;-122.806;2024-01-07T02:07:41;100517.75;;;20.87;36.44
50852;BME280;43953;45.508;-122.806;2024-01-07T02:08:13;100520.50;;;20.87;36.51
50852;BME280;43953;45.508;-122.806;2024-01-07T02:08:45;100518.88;;;20.86;36.45
50852;BME280;43953;45.508;-122.806;2024-01-07T02:09:17;100528.47;;;20.84;36.53
50852;BME280;43953;45.508;-122.806;2024-01-07T02:09:49;100518.63;;;20.83;36.38
50852;BME280;43953;45.508;-122.806;2024-01-07T02:10:21;100515.09;;;20.82;36.64
50852;BME280;43953;45.508;-122.806;2024-01-07T02:10:53;100514.53;;;20.80;36.50
50852;BME280;43953;45.508;-122.806;2024-01-07T02:11:24;100519.19;;;20.80;36.37
50852;BME280;43953;45.508;-122.806;2024-01-07T02:12:03;100515.09;;;20.77;36.66
50852;BME280;43953;45.508;-122.806;2024-01-07T02:12:35;100518.91;;;20.76;36.60
50852;BME280;43953;45.508;-122.806;2024-01-07T02:13:07;100519.22;;;20.75;36.65
50852;BME280;43953;45.508;-122.806;2024-01-07T02:13:39;100521.13;;;20.74;36.80
50852;BME280;43953;45.508;-122.806;2024-01-07T02:14:11;100524.94;;;20.73;36.69
50852;BME280;43953;45.508;-122.806;2024-01-07T02:14:42;100523.31;;;20.72;36.43
50852;BME280;43953;45.508;-122.806;2024-01-07T02:15:15;100528.25;;;20.70;36.78
50852;BME280;43953;45.508;-122.806;2024-01-07T02:15:46;100533.72;;;20.70;36.82
50852;BME280;43953;45.508;-122.806;2024-01-07T02:16:18;100521.16;;;20.69;36.77
50852;BME280;43953;45.508;-122.806;2024-01-07T02:16:50;100534.28;;;20.67;36.87
50852;BME280;43953;45.508;-122.806;2024-01-07T02:17:22;100532.41;;;20.67;36.84
50852;BME280;43953;45.508;-122.806;2024-01-07T02:17:53;100527.19;;;20.66;36.86
50852;BME280;43953;45.508;-122.806;2024-01-07T02:18:25;100525.56;;;20.65;36.62
50852;BME280;43953;45.508;-122.806;2024-01-07T02:18:57;100519.53;;;20.63;36.83
50852;BME280;43953;45.508;-122.806;2024-01-07T02:19:29;100522.28;;;20.63;36.74
50852;BME280;43953;45.508;-122.806;2024-01-07T02:20:00;100521.47;;;20.62;36.83
50852;BME280;43953;45.508;-122.806;2024-01-07T02:20:32;100512.72;;;20.60;36.69
50852;BME280;43953;45.508;-122.806;2024-01-07T02:21:04;100513.81;;;20.59;36.98
50852;BME280;43953;45.508;-122.806;2024-01-07T02:21:36;100515.75;;;20.59;36.88
50852;BME280;43953;45.508;-122.806;2024-01-07T02:22:07;100513.81;;;20.59;37.05
50852;BME280;43953;45.508;-122.806;2024-01-07T02:22:39;100518.72;;;20.62;36.95
50852;BME280;43953;45.508;-122.806;2024-01-07T02:23:11;100512.41;;;20.67;36.96
50852;BME280;43953;45.508;-122.806;2024-01-07T02:23:43;100511.28;;;20.73;36.69
50852;BME280;43953;45.508;-122.806;2024-01-07T02:24:17;100511.00;;;20.80;36.66
50852;BME280;43953;45.508;-122.806;2024-01-07T02:24:50;100515.03;;;20.87;36.71
50852;BME280;43953;45.508;-122.806;2024-01-07T02:25:21;100516.63;;;20.94;36.43
50852;BME280;43953;45.508;-122.806;2024-01-07T02:25:53;100518.81;;;20.97;36.63
50852;BME280;43953;45.508;-122.806;2024-01-07T02:26:25;100507.28;;;21.00;36.46
50852;BME280;43953;45.508;-122.806;2024-01-07T02:26:57;100505.09;;;21.02;36.42
50852;BME280;43953;45.508;-122.806;2024-01-07T02:27:28;100506.72;;;21.03;36.41
50852;BME280;43953;45.508;-122.806;2024-01-07T02:28:00;100516.84;;;21.02;36.40
50852;BME280;43953;45.508;-122.806;2024-01-07T02:28:33;100511.38;;;21.02;36.68
50852;BME280;43953;45.508;-122.806;2024-01-07T02:29:04;100515.78;;;21.03;36.38
50852;BME280;43953;45.508;-122.806;2024-01-07T02:29:36;100514.94;;;21.03;36.37
50852;BME280;43953;45.508;-122.806;2024-01-07T02:30:08;100518.50;;;21.03;36.46
50852;BME280;43953;45.508;-122.806;2024-01-07T02:30:40;100517.66;;;21.03;36.36
50852;BME280;43953;45.508;-122.806;2024-01-07T02:31:12;100517.66;;;21.03;36.24
50852;BME280;43953;45.508;-122.806;2024-01-07T02:31:43;100516.84;;;21.02;36.32
50852;BME280;43953;45.508;-122.806;2024-01-07T02:32:15;100516.03;;;21.02;36.40
50852;BME280;43953;45.508;-122.806;2024-01-07T02:32:48;100514.41;;;21.01;36.38
50852;BME280;43953;45.508;-122.806;2024-01-07T02:33:19;100523.72;;;21.00;36.47
50852;BME280;43953;45.508;-122.806;2024-01-07T02:33:51;100517.72;;;20.98;36.24
50852;BME280;43953;45.508;-122.806;2024-01-07T02:34:23;100520.47;;;20.98;36.33
50852;BME280;43953;45.508;-122.806;2024-01-07T02:34:54;100521.53;;;20.97;36.46
50852;BME280;43953;45.508;-122.806;2024-01-07T02:35:26;100519.91;;;20.96;36.28
50852;BME280;43953;45.508;-122.806;2024-01-07T02:35:58;100521.03;;;20.95;36.28
50852;BME280;43953;45.508;-122.806;2024-01-07T02:36:30;100513.09;;;20.93;36.32
50852;BME280;43953;45.508;-122.806;2024-01-07T02:37:01;100518.56;;;20.93;36.34
50852;BME280;43953;45.508;-122.806;2024-01-07T02:37:33;100515.28;;;20.91;36.40
50852;BME280;43953;45.508;-122.806;2024-01-07T02:38:05;100515.56;;;20.89;36.34
50852;BME280;43953;45.508;-122.806;2024-01-07T02:38:37;100515.56;;;20.89;36.65
50852;BME280;43953;45.508;-122.806;2024-01-07T02:39:09;100511.47;;;20.87;36.33
50852;BME280;43953;45.508;-122.806;2024-01-07T02:39:40;100517.25;;;20.85;36.34
50852;BME280;43953;45.508;-122.806;2024-01-07T02:40:12;100516.41;;;20.85;36.50
50852;BME280;43953;45.508;-122.806;2024-01-07T02:40:44;100520.25;;;20.84;36.42